createdAt,value
2022-10-06T00:01:11.874Z,102021.59
2022-10-06T00:03:39.291Z,102019.91
2022-10-06T00:06:07.376Z,102034.06
2022-10-06T00:08:36.039Z,102048.91
2022-10-06T00:11:03.021Z,102045.25
2022-10-06T00:13:30.636Z,102048.69
2022-10-06T00:15:57.196Z,102055.41
2022-10-06T00:18:23.964Z,102059.16
2022-10-06T00:20:58.959Z,102072.28
2022-10-06T00:23:26.023Z,102087.03
2022-10-06T00:25:52.600Z,102084.97
2022-10-06T00:28:19.450Z,102086.84
2022-10-06T00:30:46.910Z,102102.38
2022-10-06T00:33:16.274Z,102104.91
2022-10-06T00:35:43.885Z,102110.91
2022-10-06T00:38:16.021Z,102114.22
2022-10-06T00:40:47.595Z,102119.50
2022-10-06T00:44:11.549Z,102122.19
2022-10-06T00:46:46.198Z,102135.84
2022-10-06T00:49:35.832Z,102135.72
2022-10-06T00:52:11.947Z,102136.50
2022-10-06T00:54:38.943Z,102139.81
2022-10-06T00:57:06.549Z,102139.81
2022-10-06T00:59:34.171Z,102150.88
2022-10-06T01:02:07.548Z,102162.81
2022-10-06T01:04:36.820Z,102161.72
2022-10-06T01:07:03.892Z,102162.56
2022-10-06T01:09:31.585Z,102170.34
2022-10-06T01:12:01.960Z,102190.47
2022-10-06T01:14:29.911Z,102189.41
2022-10-06T01:17:02.565Z,102187.44
2022-10-06T01:20:02.716Z,102194.38
2022-10-06T01:22:31.259Z,102196.91
2022-10-06T01:24:58.066Z,102209.84
2022-10-06T01:27:28.892Z,102201.28
2022-10-06T01:29:57.427Z,102211.81
2022-10-06T01:32:26.221Z,102221.44
2022-10-06T01:34:52.761Z,102229.00
2022-10-06T01:37:19.306Z,102231.41
2022-10-06T01:39:45.841Z,102226.94
2022-10-06T01:42:12.288Z,102224.00
2022-10-06T01:44:38.866Z,102236.00
2022-10-06T01:47:06.610Z,102238.44
2022-10-06T01:49:33.497Z,102240.94
2022-10-06T01:52:00.551Z,102240.06
2022-10-06T01:54:27.205Z,102249.59
2022-10-06T01:56:53.801Z,102242.66
2022-10-06T01:59:20.246Z,102236.47
2022-10-06T02:01:47.372Z,102246.97
2022-10-06T02:04:14.161Z,102243.41
2022-10-06T02:06:40.799Z,102258.91
2022-10-06T02:09:07.448Z,102262.38
2022-10-06T02:11:34.018Z,102262.25
2022-10-06T02:14:01.556Z,102263.97
2022-10-06T02:16:28.938Z,102268.94
2022-10-06T02:18:55.582Z,102268.81
2022-10-06T02:21:23.027Z,102281.84
2022-10-06T02:23:49.614Z,102285.88
2022-10-06T02:26:20.123Z,102289.06
2022-10-06T02:28:47.287Z,102299.31
2022-10-06T02:31:14.404Z,102291.44
2022-10-06T02:33:41.384Z,102292.25
2022-10-06T02:36:10.470Z,102301.66
2022-10-06T02:38:36.940Z,102307.50
2022-10-06T02:41:03.910Z,102311.69
2022-10-06T02:43:31.761Z,102308.22
2022-10-06T02:46:08.154Z,102310.69
2022-10-06T02:48:35.153Z,102308.84
2022-10-06T02:51:07.854Z,102323.97
2022-10-06T02:53:35.071Z,102328.09
2022-10-06T02:56:06.313Z,102327.06
2022-10-06T02:58:33.127Z,102327.91
2022-10-06T03:01:08.080Z,102341.91
2022-10-06T03:03:35.312Z,102340.22
2022-10-06T03:06:02.421Z,102347.91
2022-10-06T03:08:29.334Z,102357.09
2022-10-06T03:11:01.058Z,102358.63
2022-10-06T03:13:27.684Z,102361.41
2022-10-06T03:15:54.158Z,102361.66
2022-10-06T03:18:21.447Z,102364.06
2022-10-06T03:20:48.150Z,102351.63
2022-10-06T03:23:14.632Z,102366.44
2022-10-06T03:25:41.165Z,102377.50
2022-10-06T03:28:07.751Z,102390.28
2022-10-06T03:30:34.372Z,102395.25
2022-10-06T03:33:01.833Z,102393.41
2022-10-06T03:35:28.349Z,102390.72
2022-10-06T03:37:54.912Z,102390.53
2022-10-06T03:40:21.405Z,102392.03
2022-10-06T03:42:47.925Z,102406.56
2022-10-06T03:45:14.460Z,102403.22
2022-10-06T03:47:40.913Z,102408.31
2022-10-06T03:50:07.968Z,102417.84
2022-10-06T03:52:34.473Z,102400.88
2022-10-06T03:55:01.103Z,102418.22
2022-10-06T03:57:27.748Z,102421.66
2022-10-06T03:59:55.075Z,102430.09
2022-10-06T04:02:21.620Z,102430.72
2022-10-06T04:04:48.160Z,102431.31
2022-10-06T04:07:14.749Z,102436.34
2022-10-06T04:09:41.180Z,102451.72
2022-10-06T04:12:08.085Z,102448.06
2022-10-06T04:14:34.971Z,102454.78
2022-10-06T04:17:01.608Z,102456.97
2022-10-06T04:19:28.188Z,102465.50
2022-10-06T04:21:54.756Z,102480.88
2022-10-06T04:24:21.301Z,102484.09
2022-10-06T04:26:50.826Z,102489.06
2022-10-06T04:29:17.292Z,102489.84
2022-10-06T04:31:43.978Z,102501.09
2022-10-06T04:34:13.173Z,102499.25
2022-10-06T04:36:41.314Z,102502.59
2022-10-06T04:39:10.616Z,102513.78
2022-10-06T04:41:39.613Z,102514.63
2022-10-06T04:44:07.669Z,102505.78
2022-10-06T04:46:43.853Z,102517.84
2022-10-06T04:49:17.933Z,102521.16
2022-10-06T04:51:46.642Z,102526.94
2022-10-06T04:54:13.187Z,102529.19
2022-10-06T04:56:39.738Z,102534.25
2022-10-06T04:59:06.258Z,102536.72
2022-10-06T05:01:36.085Z,102543.53
2022-10-06T05:04:04.035Z,102546.88
2022-10-06T05:06:33.339Z,102541.41
2022-10-06T05:09:02.828Z,102553.41
2022-10-06T05:11:29.889Z,102553.16
2022-10-06T05:13:57.882Z,102549.72
2022-10-06T05:16:26.912Z,102559.25
2022-10-06T05:18:53.587Z,102555.63
2022-10-06T05:21:23.170Z,102558.97
2022-10-06T05:23:50.584Z,102558.84
2022-10-06T05:26:20.477Z,102562.94
2022-10-06T05:28:47.741Z,102570.59
2022-10-06T05:31:17.075Z,102584.97
2022-10-06T05:33:43.988Z,102587.69
2022-10-06T05:36:15.821Z,102591.22
2022-10-06T05:38:44.014Z,102582.28
2022-10-06T05:41:19.096Z,102580.59
2022-10-06T05:43:45.890Z,102587.53
2022-10-06T05:46:17.620Z,102597.66
2022-10-06T05:48:52.562Z,102602.75
2022-10-06T05:51:20.567Z,102584.91
2022-10-06T05:53:48.578Z,102605.84
2022-10-06T05:56:21.714Z,102614.53
2022-10-06T05:58:50.942Z,102623.22
2022-10-06T06:01:32.683Z,102606.72
2022-10-06T06:04:02.776Z,102619.66
2022-10-06T06:06:37.787Z,102631.63
2022-10-06T06:09:08.794Z,102639.34
2022-10-06T06:11:37.439Z,102643.69
2022-10-06T06:14:06.658Z,102647.97
2022-10-06T06:16:34.395Z,102646.09
2022-10-06T06:19:01.355Z,102645.25
2022-10-06T06:21:29.018Z,102650.38
2022-10-06T06:23:55.802Z,102661.03
2022-10-06T06:26:23.636Z,102669.81
2022-10-06T06:28:51.581Z,102667.91
2022-10-06T06:31:26.471Z,102670.88
2022-10-06T06:33:56.448Z,102671.75
2022-10-06T06:36:31.951Z,102679.59
2022-10-06T06:38:58.881Z,102684.31
2022-10-06T06:41:28.641Z,102680.28
2022-10-06T06:43:56.212Z,102688.53
2022-10-06T06:46:25.372Z,102684.50
2022-10-06T06:48:52.883Z,102679.88
2022-10-06T06:51:22.989Z,102672.50
2022-10-06T06:53:51.014Z,102681.69
2022-10-06T06:56:17.681Z,102697.53
2022-10-06T06:58:48.489Z,102690.09
2022-10-06T07:01:21.475Z,102696.72
2022-10-06T07:03:58.055Z,102700.41
2022-10-06T07:06:30.431Z,102702.84
2022-10-06T07:08:58.837Z,102719.06
2022-10-06T07:11:31.296Z,102709.88
2022-10-06T07:14:04.221Z,102721.53
2022-10-06T07:16:51.110Z,102721.19
2022-10-06T07:19:38.276Z,102731.72
2022-10-06T07:22:26.610Z,102742.31
2022-10-06T07:25:11.706Z,102752.91
2022-10-06T07:27:43.983Z,102751.78
2022-10-06T07:30:19.306Z,102759.66
2022-10-06T07:32:47.259Z,102766.81
2022-10-06T07:35:16.220Z,102769.53
2022-10-06T07:37:43.281Z,102772.63
2022-10-06T07:40:10.880Z,102768.00
2022-10-06T07:42:48.515Z,102773.03
2022-10-06T07:45:36.153Z,102781.22
2022-10-06T07:48:07.863Z,102773.94
2022-10-06T07:50:38.033Z,102764.56
2022-10-06T07:53:09.292Z,102772.78
2022-10-06T07:55:41.328Z,102769.41
2022-10-06T07:58:23.953Z,102775.38
2022-10-06T08:00:52.774Z,102773.31
2022-10-06T08:03:20.299Z,102785.50
2022-10-06T08:05:49.236Z,102782.19
2022-10-06T08:08:16.717Z,102782.25
2022-10-06T08:10:51.775Z,102791.94
2022-10-06T08:13:18.170Z,102805.28
2022-10-06T08:15:45.656Z,102798.88
2022-10-06T08:18:27.279Z,102813.75
2022-10-06T08:20:59.367Z,102803.31
2022-10-06T08:23:26.423Z,102802.81
2022-10-06T08:25:54.323Z,102817.91
2022-10-06T08:28:22.296Z,102812.66
2022-10-06T08:30:51.451Z,102821.34
2022-10-06T08:33:21.239Z,102818.88
2022-10-06T08:35:48.179Z,102827.09
2022-10-06T08:38:14.817Z,102829.59
2022-10-06T08:40:43.925Z,102835.00
2022-10-06T08:43:19.999Z,102833.34
2022-10-06T08:45:47.756Z,102838.78
2022-10-06T08:48:18.668Z,102840.53
2022-10-06T08:51:10.140Z,102853.75
2022-10-06T08:54:11.811Z,102852.38
2022-10-06T08:56:59.014Z,102853.84
2022-10-06T08:59:25.578Z,102852.94
2022-10-06T09:01:54.656Z,102846.91
2022-10-06T09:04:29.289Z,102851.63
2022-10-06T09:07:10.670Z,102847.41
2022-10-06T09:09:39.253Z,102862.44
2022-10-06T09:12:21.604Z,102860.72
2022-10-06T09:14:57.174Z,102870.75
2022-10-06T09:17:38.220Z,102868.31
2022-10-06T09:20:32.797Z,102862.06
2022-10-06T09:23:01.900Z,102856.53
2022-10-06T09:25:30.582Z,102868.19
2022-10-06T09:27:59.525Z,102870.03
2022-10-06T09:30:26.450Z,102869.47
2022-10-06T09:32:59.997Z,102878.38
2022-10-06T09:35:29.657Z,102883.09
2022-10-06T09:37:57.429Z,102880.63
2022-10-06T09:40:38.661Z,102877.28
2022-10-06T09:43:28.127Z,102875.47
2022-10-06T09:45:56.539Z,102877.59
2022-10-06T09:48:27.060Z,102881.38
2022-10-06T09:51:14.609Z,102879.56
2022-10-06T09:54:10.704Z,102888.88
2022-10-06T09:56:47.150Z,102894.56
2022-10-06T09:59:39.770Z,102892.69
2022-10-06T10:02:30.513Z,102897.06
2022-10-06T10:04:57.985Z,102891.06
2022-10-06T10:07:30.163Z,102892.84
2022-10-06T10:10:22.957Z,102905.22
2022-10-06T10:13:00.117Z,102902.63
2022-10-06T10:15:40.430Z,102901.72
2022-10-06T10:18:13.983Z,102905.06
2022-10-06T10:20:59.782Z,102905.97
2022-10-06T10:23:33.409Z,102905.06
2022-10-06T10:26:17.989Z,102923.34
2022-10-06T10:29:03.327Z,102923.34
2022-10-06T10:31:41.390Z,102927.72
2022-10-06T10:36:56.411Z,102919.19
2022-10-06T10:39:35.002Z,102919.31
2022-10-06T10:42:10.073Z,102911.72
2022-10-06T10:44:43.034Z,102912.63
2022-10-06T10:47:47.032Z,102923.13
2022-10-06T10:50:44.041Z,102929.00
2022-10-06T10:53:20.112Z,102913.78
2022-10-06T10:55:48.618Z,102935.84
2022-10-06T10:58:24.978Z,102931.94
2022-10-06T11:00:58.082Z,102939.66
2022-10-06T11:03:24.860Z,102942.94
2022-10-06T11:06:14.817Z,102940.47
2022-10-06T11:09:01.451Z,102948.06
2022-10-06T11:11:51.276Z,102944.34
2022-10-06T11:14:40.458Z,102943.78
2022-10-06T11:17:16.105Z,102941.69
2022-10-06T11:20:08.702Z,102954.59
2022-10-06T11:23:03.141Z,102941.81
2022-10-06T11:25:35.267Z,102947.00
2022-10-06T11:28:14.589Z,102947.91
2022-10-06T11:30:50.944Z,102945.34
2022-10-06T11:33:46.875Z,102946.75
2022-10-06T11:36:20.480Z,102941.97
2022-10-06T11:38:58.389Z,102945.66
2022-10-06T11:41:49.435Z,102953.50
2022-10-06T11:44:39.079Z,102950.91
2022-10-06T11:47:10.517Z,102964.97
2022-10-06T11:49:51.464Z,102956.34
2022-10-06T11:52:18.066Z,102955.53
2022-10-06T11:54:44.741Z,102961.56
2022-10-06T11:58:01.010Z,102965.34
2022-10-06T12:00:34.492Z,102960.91
2022-10-06T12:03:28.672Z,102950.41
2022-10-06T12:05:56.841Z,102950.41
2022-10-06T12:08:38.940Z,102939.00
2022-10-06T12:11:41.681Z,102953.91
2022-10-06T12:17:33.513Z,102946.97
2022-10-06T12:20:22.829Z,102954.84
2022-10-06T12:22:56.337Z,102933.16
2022-10-06T12:25:33.586Z,102939.84
2022-10-06T12:28:26.685Z,102944.25
2022-10-06T12:31:19.525Z,102948.81
2022-10-06T12:33:46.336Z,102938.22
2022-10-06T12:36:32.145Z,102942.66
2022-10-06T12:39:02.124Z,102946.09
2022-10-06T12:41:56.531Z,102940.72
2022-10-06T12:44:26.032Z,102935.25
2022-10-06T12:46:54.897Z,102929.88
2022-10-06T12:49:34.362Z,102941.22
2022-10-06T12:52:18.482Z,102939.69
2022-10-06T12:55:20.361Z,102938.94
2022-10-06T12:57:52.104Z,102939.09
2022-10-06T13:00:22.817Z,102935.72
2022-10-06T13:02:49.545Z,102936.72
2022-10-06T13:05:16.141Z,102936.75
2022-10-06T13:07:57.502Z,102931.34
2022-10-06T13:10:24.191Z,102933.72
2022-10-06T13:12:52.204Z,102939.56
2022-10-06T13:15:25.220Z,102935.66
2022-10-06T13:17:55.008Z,102941.44
2022-10-06T13:20:23.290Z,102947.28
2022-10-06T13:22:59.083Z,102938.47
2022-10-06T13:25:31.098Z,102938.38
2022-10-06T13:27:57.673Z,102927.97
2022-10-06T13:30:24.392Z,102917.97
2022-10-06T13:32:55.577Z,102926.00
2022-10-06T13:35:26.097Z,102921.91
2022-10-06T13:37:54.045Z,102929.13
2022-10-06T13:40:45.914Z,102917.78
2022-10-06T13:43:18.264Z,102931.81
2022-10-06T13:45:48.326Z,102922.31
2022-10-06T13:48:18.830Z,102927.63
2022-10-06T13:50:47.675Z,102932.88
2022-10-06T13:53:32.156Z,102927.66
2022-10-06T13:55:59.171Z,102931.91
2022-10-06T13:58:27.875Z,102931.13
2022-10-06T14:01:00.957Z,102925.78
2022-10-06T14:06:21.308Z,102922.19
2022-10-06T14:08:57.833Z,102930.25
2022-10-06T14:11:28.093Z,102932.91
2022-10-06T14:14:15.982Z,102932.72
2022-10-06T14:16:48.810Z,102935.34
2022-10-06T14:19:36.832Z,102932.03
2022-10-06T14:22:05.293Z,102929.56
2022-10-06T14:24:37.409Z,102924.59
2022-10-06T14:27:06.122Z,102924.59
2022-10-06T14:29:34.171Z,102926.81
2022-10-06T14:32:14.690Z,102924.22
2022-10-06T14:34:42.042Z,102919.97
2022-10-06T14:37:15.423Z,102921.63
2022-10-06T14:39:43.388Z,102913.47
2022-10-06T14:42:11.560Z,102921.34
2022-10-06T14:44:38.636Z,102914.38
2022-10-06T14:47:06.659Z,102911.66
2022-10-06T14:49:33.439Z,102916.03
2022-10-06T14:52:00.522Z,102894.31
2022-10-06T14:54:27.053Z,102902.94
2022-10-06T14:56:53.799Z,102915.00
2022-10-06T14:59:21.405Z,102908.72
2022-10-06T15:01:49.509Z,102905.34
2022-10-06T15:04:20.728Z,102899.94
2022-10-06T15:07:05.668Z,102904.13
2022-10-06T15:09:32.741Z,102911.88
2022-10-06T15:12:00.139Z,102907.38
2022-10-06T15:14:28.447Z,102915.75
2022-10-06T15:16:58.998Z,102910.56
2022-10-06T15:19:25.662Z,102903.50
2022-10-06T15:21:52.221Z,102899.91
2022-10-06T15:24:19.752Z,102911.16
2022-10-06T15:27:05.904Z,102889.28
2022-10-06T15:29:34.703Z,102890.09
2022-10-06T15:32:02.716Z,102892.50
2022-10-06T15:34:31.914Z,102898.59
2022-10-06T15:37:00.109Z,102895.03
2022-10-06T15:39:29.398Z,102897.38
2022-10-06T15:41:56.241Z,102889.50
2022-10-06T15:44:23.471Z,102906.69
2022-10-06T15:46:52.292Z,102902.84
2022-10-06T15:49:23.984Z,102904.44
2022-10-06T15:51:51.677Z,102899.03
2022-10-06T15:54:20.912Z,102906.03
2022-10-06T15:56:50.399Z,102909.28
2022-10-06T15:59:19.708Z,102897.06
2022-10-06T16:01:47.804Z,102905.78
2022-10-06T16:04:29.218Z,102894.13
2022-10-06T16:06:56.264Z,102911.22
2022-10-06T16:09:30.894Z,102909.44
2022-10-06T16:12:03.716Z,102918.78
2022-10-06T16:14:31.443Z,102914.53
2022-10-06T16:17:02.555Z,102917.94
2022-10-06T16:19:31.117Z,102916.72
2022-10-06T16:21:59.321Z,102917.69
2022-10-06T16:24:26.583Z,102913.19
2022-10-06T16:26:54.084Z,102911.16
2022-10-06T16:29:21.755Z,102906.72
2022-10-06T16:31:49.097Z,102916.13
2022-10-06T16:34:16.304Z,102912.31
2022-10-06T16:36:42.992Z,102913.06
2022-10-06T16:39:15.519Z,102910.53
2022-10-06T16:41:42.309Z,102906.03
2022-10-06T16:44:08.990Z,102909.19
2022-10-06T16:46:35.753Z,102894.03
2022-10-06T16:49:03.478Z,102910.84
2022-10-06T16:51:32.906Z,102917.44
2022-10-06T16:54:02.946Z,102909.59
2022-10-06T16:56:40.967Z,102908.91
2022-10-06T16:59:16.266Z,102918.03
2022-10-06T17:01:43.103Z,102910.66
2022-10-06T17:04:14.778Z,102911.59
2022-10-06T17:06:44.771Z,102909.47
2022-10-06T17:09:14.504Z,102902.28
2022-10-06T17:11:43.784Z,102899.50
2022-10-06T17:14:10.786Z,102901.06
2022-10-06T17:16:41.244Z,102893.84
2022-10-06T17:19:09.326Z,102898.84
2022-10-06T17:21:57.411Z,102901.31
2022-10-06T17:24:25.467Z,102896.59
2022-10-06T17:26:52.802Z,102903.28
2022-10-06T17:29:23.211Z,102905.78
2022-10-06T17:31:58.994Z,102909.81
2022-10-06T17:34:31.773Z,102903.28
2022-10-06T17:37:01.076Z,102908.28
2022-10-06T17:39:27.610Z,102916.03
2022-10-06T17:41:54.469Z,102908.91
2022-10-06T17:44:23.750Z,102917.41
2022-10-06T17:46:53.131Z,102916.31
2022-10-06T17:49:22.210Z,102915.34
2022-10-06T17:51:50.477Z,102909.00
2022-10-06T17:54:20.165Z,102912.31
2022-10-06T17:56:49.351Z,102913.78
2022-10-06T17:59:19.904Z,102917.06
2022-10-06T18:01:46.485Z,102907.34
2022-10-06T18:04:16.189Z,102905.28
2022-10-06T18:06:44.460Z,102909.44
2022-10-06T18:09:11.886Z,102902.25
2022-10-06T18:11:41.508Z,102908.06
2022-10-06T18:14:07.980Z,102911.34
2022-10-06T18:16:37.832Z,102908.47
2022-10-06T18:19:09.605Z,102909.00
2022-10-06T18:21:38.857Z,102896.84
2022-10-06T18:24:13.356Z,102909.91
2022-10-06T18:26:41.946Z,102911.38
2022-10-06T18:29:10.134Z,102914.88
2022-10-06T18:31:38.430Z,102918.78
2022-10-06T18:36:52.765Z,102920.88
2022-10-06T18:39:19.573Z,102919.00
2022-10-06T18:41:47.631Z,102903.09
2022-10-06T18:44:14.231Z,102902.97
2022-10-06T18:46:59.504Z,102901.84
2022-10-06T18:49:26.029Z,102903.34
2022-10-06T18:51:58.256Z,102897.13
2022-10-06T18:54:31.189Z,102912.53
2022-10-06T18:56:58.175Z,102901.06
2022-10-06T18:59:31.036Z,102908.63
2022-10-06T19:02:00.406Z,102903.97
2022-10-06T19:04:27.045Z,102906.50
2022-10-06T19:06:55.469Z,102901.00
2022-10-06T19:09:23.802Z,102902.63
2022-10-06T19:11:58.771Z,102906.88
2022-10-06T19:14:33.205Z,102906.66
2022-10-06T19:17:05.834Z,102906.34
2022-10-06T19:19:33.945Z,102903.50
2022-10-06T19:22:02.871Z,102903.38
2022-10-06T19:24:41.643Z,102877.78
2022-10-06T19:27:20.669Z,102896.25
2022-10-06T19:29:54.237Z,102882.97
2022-10-06T19:32:24.262Z,102896.00
2022-10-06T19:34:50.826Z,102892.53
2022-10-06T19:37:17.317Z,102895.75
2022-10-06T19:39:45.881Z,102910.31
2022-10-06T19:42:36.670Z,102905.00
2022-10-06T19:45:05.577Z,102911.78
2022-10-06T19:47:32.344Z,102896.75
2022-10-06T19:50:02.881Z,102910.59
2022-10-06T19:52:31.491Z,102895.72
2022-10-06T19:54:58.482Z,102902.88
2022-10-06T19:57:28.507Z,102892.16
2022-10-06T19:59:55.030Z,102900.81
2022-10-06T20:02:21.596Z,102900.56
2022-10-06T20:04:49.804Z,102890.84
2022-10-06T20:07:16.471Z,102903.66
2022-10-06T20:09:44.032Z,102897.41
2022-10-06T20:12:10.560Z,102892.94
2022-10-06T20:14:37.049Z,102896.47
2022-10-06T20:17:03.624Z,102912.06
2022-10-06T20:19:30.991Z,102913.59
2022-10-06T20:21:58.171Z,102905.56
2022-10-06T20:24:24.860Z,102901.94
2022-10-06T20:26:52.992Z,102903.78
2022-10-06T20:29:25.305Z,102900.03
2022-10-06T20:31:54.999Z,102909.75
2022-10-06T20:34:31.978Z,102906.88
2022-10-06T20:37:03.821Z,102904.19
2022-10-06T20:39:50.559Z,102906.66
2022-10-06T20:42:19.146Z,102895.09
2022-10-06T20:44:45.962Z,102895.28
2022-10-06T20:47:13.277Z,102894.97
2022-10-06T20:49:42.408Z,102897.66
2022-10-06T20:52:09.840Z,102896.72
2022-10-06T20:54:37.439Z,102894.00
2022-10-06T20:57:06.473Z,102893.88
2022-10-06T20:59:35.489Z,102896.44
2022-10-06T21:02:02.724Z,102892.97
2022-10-06T21:04:30.072Z,102891.06
2022-10-06T21:06:57.279Z,102891.06
2022-10-06T21:09:28.676Z,102886.59
2022-10-06T21:11:57.292Z,102880.44
2022-10-06T21:14:23.764Z,102869.25
2022-10-06T21:16:50.902Z,102868.16
2022-10-06T21:19:19.260Z,102877.56
2022-10-06T21:21:51.811Z,102870.66
2022-10-06T21:24:19.430Z,102864.34
2022-10-06T21:26:45.959Z,102871.91
2022-10-06T21:29:15.303Z,102864.72
2022-10-06T21:31:43.039Z,102878.59
2022-10-06T21:34:10.437Z,102878.53
2022-10-06T21:36:37.284Z,102875.81
2022-10-06T21:39:05.660Z,102866.09
2022-10-06T21:41:40.199Z,102872.28
2022-10-06T21:44:09.510Z,102872.41
2022-10-06T21:46:42.258Z,102863.63
2022-10-06T21:49:14.678Z,102860.81
2022-10-06T21:51:42.462Z,102863.53
2022-10-06T21:54:12.334Z,102847.59
2022-10-06T21:56:39.838Z,102851.13
2022-10-06T21:59:07.134Z,102849.38
2022-10-06T22:01:38.688Z,102846.19
2022-10-06T22:04:05.689Z,102838.47
2022-10-06T22:06:34.112Z,102835.78
2022-10-06T22:09:01.027Z,102824.09
2022-10-06T22:11:29.765Z,102818.94
2022-10-06T22:13:59.133Z,102814.63
2022-10-06T22:16:28.451Z,102813.06
2022-10-06T22:18:55.448Z,102805.56
2022-10-06T22:21:28.198Z,102808.34
2022-10-06T22:23:56.819Z,102804.38
2022-10-06T22:26:24.263Z,102804.25
2022-10-06T22:28:53.422Z,102796.28
2022-10-06T22:31:25.480Z,102794.88
2022-10-06T22:33:55.761Z,102791.25
2022-10-06T22:36:22.792Z,102769.31
2022-10-06T22:38:49.288Z,102775.53
2022-10-06T22:41:16.501Z,102772.06
2022-10-06T22:43:43.058Z,102772.19
2022-10-06T22:46:10.696Z,102777.41
2022-10-06T22:48:37.362Z,102773.06
2022-10-06T22:51:04.825Z,102765.25
2022-10-06T22:53:31.864Z,102766.28
2022-10-06T22:55:59.559Z,102764.53
2022-10-06T22:58:27.467Z,102764.66
2022-10-06T23:00:55.091Z,102762.78
2022-10-06T23:03:22.325Z,102768.19
2022-10-06T23:06:00.039Z,102753.16
2022-10-06T23:08:31.397Z,102756.88
2022-10-06T23:11:13.819Z,102751.81
2022-10-06T23:13:41.441Z,102752.13
2022-10-06T23:16:10.258Z,102739.78
2022-10-06T23:18:39.968Z,102739.34
2022-10-06T23:21:18.923Z,102744.69
2022-10-06T23:23:46.474Z,102738.59
2022-10-06T23:26:14.821Z,102735.09
2022-10-06T23:28:41.993Z,102744.84
2022-10-06T23:31:10.861Z,102744.34
2022-10-06T23:33:38.161Z,102731.47
2022-10-06T23:36:09.945Z,102733.84
2022-10-06T23:38:38.126Z,102731.78
2022-10-06T23:41:06.299Z,102730.81
2022-10-06T23:43:33.186Z,102731.41
2022-10-06T23:46:00.087Z,102724.13
2022-10-06T23:48:26.891Z,102731.41
2022-10-06T23:51:06.560Z,102717.78
2022-10-06T23:53:34.158Z,102717.09
2022-10-06T23:56:01.013Z,102714.47
2022-10-06T23:58:28.046Z,102706.81
